Time;durP1;ratioP1;P1;durP2;ratioP2;P2;SDS_P1;SDS_P2;PMS_P1;PMS_P2;Temp;Humidity;BMP_temperature;BMP_pressure;BME280_temperature;BME280_humidity;BME280_pressure;Samples;Min_cycle;Max_cycle;Signal;HPM_P1;HPM_P2
2021/06/17 00:01:08;;;;;;;1999.90;999.90;;;14.70;99.90;;;;;;6123520;23;20427;-48
2021/06/17 00:03:34;;;;;;;1999.90;999.90;;;14.60;99.90;;;;;;6123771;23;20151;-45
2021/06/17 00:06:01;;;;;;;1999.90;999.90;;;14.60;99.90;;;;;;6123243;23;20506;-46
2021/06/17 00:08:28;;;;;;;1999.90;999.90;;;14.70;99.90;;;;;;6123588;23;20151;-52
2021/06/17 00:10:55;;;;;;;1999.90;999.90;;;14.60;99.90;;;;;;6123570;23;20162;-46
2021/06/17 00:13:26;;;;;;;1999.90;999.90;;;14.60;99.90;;;;;;6123500;23;20159;-51
2021/06/17 00:15:57;;;;;;;1999.90;999.90;;;14.60;99.90;;;;;;6123772;23;20581;-46
2021/06/17 00:18:25;;;;;;;1999.90;999.90;;;14.60;99.90;;;;;;6123510;23;20152;-48
2021/06/17 00:20:52;;;;;;;1999.90;999.90;;;14.70;99.90;;;;;;6124536;23;20155;-46
2021/06/17 00:23:20;;;;;;;1999.90;999.90;;;14.70;99.90;;;;;;6125549;23;20159;-48
2021/06/17 00:25:46;;;;;;;1999.90;999.90;;;14.70;99.90;;;;;;6125107;23;20258;-46
2021/06/17 00:28:14;;;;;;;1999.90;999.90;;;14.60;99.90;;;;;;6125223;23;20466;-48
2021/06/17 00:30:40;;;;;;;1999.90;999.90;;;14.60;99.90;;;;;;6125308;23;20159;-46
2021/06/17 00:33:07;;;;;;;1999.90;999.90;;;14.60;99.90;;;;;;6125020;23;20143;-48
2021/06/17 00:35:34;;;;;;;1999.90;999.90;;;14.60;99.90;;;;;;6124907;23;20158;-47
2021/06/17 00:38:01;;;;;;;1999.90;999.90;;;14.60;99.90;;;;;;6125410;23;20143;-47
2021/06/17 00:40:29;;;;;;;1999.90;999.90;;;14.60;99.90;;;;;;6124811;23;20158;-48
2021/06/17 00:42:56;;;;;;;1999.90;999.90;;;14.60;99.90;;;;;;6124922;23;20468;-48
2021/06/17 00:45:29;;;;;;;1999.90;999.90;;;14.50;99.90;;;;;;6125190;23;20920;-45
2021/06/17 00:47:57;;;;;;;1999.90;999.90;;;14.50;99.90;;;;;;6125209;23;20137;-47
2021/06/17 00:50:26;;;;;;;1999.90;999.90;;;14.50;99.90;;;;;;6125139;23;20534;-49
2021/06/17 00:52:53;;;;;;;1999.90;999.90;;;14.50;99.90;;;;;;6124844;23;20198;-53
2021/06/17 00:55:20;;;;;;;1999.90;999.90;;;14.60;99.90;;;;;;6125032;23;20477;-48
2021/06/17 00:57:47;;;;;;;1999.90;999.90;;;14.60;99.90;;;;;;6125476;23;20177;-48
2021/06/17 01:00:16;;;;;;;1999.90;999.90;;;14.60;99.90;;;;;;6124928;23;20264;-46
2021/06/17 01:02:44;;;;;;;1999.90;999.90;;;14.60;99.90;;;;;;6124747;23;20610;-51
2021/06/17 01:05:14;;;;;;;1999.90;999.90;;;14.60;99.90;;;;;;6124794;23;20235;-47
2021/06/17 01:07:48;;;;;;;1999.90;999.90;;;14.70;99.90;;;;;;6124881;23;20155;-48
2021/06/17 01:10:44;;;;;;;1999.90;999.90;;;14.70;99.90;;;;;;6124728;23;20238;-48
2021/06/17 01:13:29;;;;;;;1999.90;999.90;;;14.70;99.90;;;;;;6080217;23;20599;-49
2021/06/17 01:16:17;;;;;;;1999.90;999.90;;;14.60;99.90;;;;;;6124518;23;20146;-46
2021/06/17 01:18:52;;;;;;;1999.90;999.90;;;14.60;99.90;;;;;;6124724;23;20601;-54
2021/06/17 01:21:30;;;;;;;1999.90;999.90;;;14.60;99.90;;;;;;6125037;23;20135;-50
2021/06/17 01:24:15;;;;;;;1999.90;999.90;;;14.60;99.90;;;;;;6124674;23;20711;-48
2021/06/17 01:26:48;;;;;;;1999.90;999.90;;;14.50;99.90;;;;;;6124751;23;20159;-46
2021/06/17 01:29:20;;;;;;;1999.90;999.90;;;14.50;99.90;;;;;;6124622;23;20159;-48
2021/06/17 01:31:48;;;;;;;1999.90;999.90;;;14.60;99.90;;;;;;6124188;23;20574;-51
2021/06/17 01:34:17;;;;;;;1999.90;999.90;;;14.50;99.90;;;;;;6125058;23;20148;-45
2021/06/17 01:36:49;;;;;;;1999.90;999.90;;;14.60;99.90;;;;;;6124394;23;20204;-53
2021/06/17 01:39:19;;;;;;;1999.90;999.90;;;14.60;99.90;;;;;;6124168;23;20143;-46
2021/06/17 01:41:49;;;;;;;1999.90;999.90;;;14.60;99.90;;;;;;6124610;23;20489;-55
2021/06/17 01:44:20;;;;;;;1999.90;999.90;;;14.60;99.90;;;;;;6124427;23;20186;-45
2021/06/17 01:46:48;;;;;;;1999.90;999.90;;;14.60;99.90;;;;;;6124069;23;20210;-48
2021/06/17 01:49:17;;;;;;;1999.90;999.90;;;14.60;99.90;;;;;;6124817;23;20154;-48
2021/06/17 01:51:45;;;;;;;1999.90;999.90;;;14.50;99.90;;;;;;6124222;23;20574;-46
2021/06/17 01:54:21;;;;;;;1999.90;999.90;;;14.60;99.90;;;;;;6124351;23;20721;-46
2021/06/17 01:56:50;;;;;;;1999.90;999.90;;;14.60;99.90;;;;;;6124387;23;20147;-48
2021/06/17 01:59:18;;;;;;;1999.90;999.90;;;14.60;99.90;;;;;;6124428;23;20478;-49
2021/06/17 02:01:46;;;;;;;1999.90;999.90;;;14.60;99.90;;;;;;6124569;23;20155;-51
2021/06/17 02:04:14;;;;;;;1999.90;999.90;;;14.60;99.90;;;;;;6124348;23;20182;-46
2021/06/17 02:06:42;;;;;;;1999.90;999.90;;;14.60;99.90;;;;;;6124392;23;20179;-46
2021/06/17 02:09:10;;;;;;;1999.90;999.90;;;14.50;99.90;;;;;;6124306;23;20151;-50
2021/06/17 02:11:37;;;;;;;1999.90;999.90;;;14.60;99.90;;;;;;6124564;23;20162;-49
2021/06/17 02:14:04;;;;;;;1999.90;999.90;;;14.60;99.90;;;;;;6124016;23;20155;-47
2021/06/17 02:16:34;;;;;;;1999.90;999.90;;;14.60;99.90;;;;;;6124157;23;20194;-46
2021/06/17 02:19:04;;;;;;;1999.90;999.90;;;14.60;99.90;;;;;;6124153;23;20147;-47
2021/06/17 02:21:33;;;;;;;1999.90;999.90;;;14.50;99.90;;;;;;6123871;23;20155;-47
2021/06/17 02:24:03;;;;;;;1999.90;999.90;;;14.50;99.90;;;;;;6124306;23;20153;-49
2021/06/17 02:26:31;;;;;;;1999.90;999.90;;;14.60;99.90;;;;;;6123997;23;20467;-45
2021/06/17 02:29:01;;;;;;;1999.90;999.90;;;14.60;99.90;;;;;;6123754;23;20602;-53
2021/06/17 02:31:32;;;;;;;1999.90;999.90;;;14.60;99.90;;;;;;6124167;23;20174;-50
2021/06/17 02:33:59;;;;;;;1999.90;999.90;;;14.60;99.90;;;;;;6123937;23;20217;-52
2021/06/17 02:36:27;;;;;;;1999.90;999.90;;;14.60;99.90;;;;;;6123957;23;20152;-49
2021/06/17 02:39:01;;;;;;;1999.90;999.90;;;14.70;99.90;;;;;;6124369;23;20152;-49
2021/06/17 02:41:29;;;;;;;1999.90;999.90;;;14.60;99.90;;;;;;6123877;23;20142;-46
2021/06/17 02:44:00;;;;;;;1999.90;999.90;;;14.70;99.90;;;;;;6123441;23;20173;-46
2021/06/17 02:46:27;;;;;;;1999.90;999.90;;;14.60;99.90;;;;;;6097951;23;20264;-51
2021/06/17 02:48:55;;;;;;;1999.90;999.90;;;14.60;99.90;;;;;;6123881;23;20439;-46
2021/06/17 02:51:23;;;;;;;1999.90;999.90;;;14.60;99.90;;;;;;6124041;23;20151;-46
2021/06/17 02:53:50;;;;;;;1999.90;999.90;;;14.60;99.90;;;;;;6123776;23;20187;-48
2021/06/17 02:56:25;;;;;;;1999.90;999.90;;;14.50;99.90;;;;;;6123612;23;20147;-49
2021/06/17 02:59:36;;;;;;;1999.90;999.90;;;14.50;99.90;;;;;;6124076;23;20169;-46
2021/06/17 03:02:15;;;;;;;1999.90;999.90;;;14.50;99.90;;;;;;6123646;23;20205;-46
2021/06/17 03:04:48;;;;;;;1999.90;999.90;;;14.50;99.90;;;;;;6123575;23;20259;-46
2021/06/17 03:07:25;;;;;;;1999.90;999.90;;;14.60;99.90;;;;;;6123947;23;20210;-50
2021/06/17 03:10:12;;;;;;;1999.90;999.90;;;14.60;99.90;;;;;;6123765;23;20146;-46
2021/06/17 03:12:44;;;;;;;1999.90;999.90;;;14.60;99.90;;;;;;6124217;23;20131;-51
2021/06/17 03:15:11;;;;;;;1999.90;999.90;;;14.50;99.90;;;;;;6123562;23;20150;-51
2021/06/17 03:17:43;;;;;;;1999.90;999.90;;;14.50;99.90;;;;;;6123364;23;20170;-48
2021/06/17 03:20:11;;;;;;;1999.90;999.90;;;14.50;99.90;;;;;;6123610;23;20151;-47
2021/06/17 03:22:43;;;;;;;1999.90;999.90;;;14.50;99.90;;;;;;6123534;23;20155;-50
2021/06/17 03:25:14;;;;;;;1999.90;999.90;;;14.50;99.90;;;;;;6123649;23;20226;-46
2021/06/17 03:27:42;;;;;;;1999.90;999.90;;;14.50;99.90;;;;;;6123595;23;20135;-50
2021/06/17 03:30:11;;;;;;;1999.90;999.90;;;14.50;99.90;;;;;;6123658;23;20147;-53
2021/06/17 03:32:40;;;;;;;1999.90;999.90;;;14.50;99.90;;;;;;6123082;23;20154;-49
2021/06/17 03:35:10;;;;;;;1999.90;999.90;;;14.50;99.90;;;;;;6123916;23;20597;-46
2021/06/17 03:37:38;;;;;;;1999.90;999.90;;;14.50;99.90;;;;;;6123170;23;20155;-49
2021/06/17 03:40:06;;;;;;;1999.90;999.90;;;14.60;99.90;;;;;;6123582;23;20162;-52
2021/06/17 03:42:34;;;;;;;1999.90;999.90;;;14.50;99.90;;;;;;6124029;23;20199;-46
2021/06/17 03:45:07;;;;;;;1999.90;999.90;;;14.40;99.90;;;;;;6123517;23;20179;-50
2021/06/17 03:47:35;;;;;;;1999.90;999.90;;;14.50;99.90;;;;;;6123506;23;20230;-46
2021/06/17 03:50:03;;;;;;;1999.90;999.90;;;14.40;99.90;;;;;;6123992;23;20147;-50
2021/06/17 03:52:30;;;;;;;1999.90;999.90;;;14.30;99.90;;;;;;6123112;23;20182;-49
2021/06/17 03:54:57;;;;;;;1999.90;999.90;;;14.20;99.90;;;;;;6124789;23;20154;-48
2021/06/17 03:57:25;;;;;;;1999.90;999.90;;;14.20;99.90;;;;;;6125632;23;20170;-50
2021/06/17 03:59:55;;;;;;;1999.90;999.90;;;14.20;99.90;;;;;;6125704;23;20157;-51
2021/06/17 04:02:24;;;;;;;1999.90;999.90;;;14.30;99.90;;;;;;6125934;23;20595;-50
2021/06/17 04:04:52;;;;;;;1999.90;999.90;;;14.30;99.90;;;;;;6125255;23;20218;-51
2021/06/17 04:07:25;;;;;;;1999.90;999.90;;;14.20;99.90;;;;;;6125213;23;20645;-49
2021/06/17 04:09:54;;;;;;;1999.90;999.90;;;14.10;99.90;;;;;;6125518;23;20140;-46
2021/06/17 04:12:23;;;;;;;1999.90;999.90;;;14.10;99.90;;;;;;6125445;23;20206;-55
2021/06/17 04:14:53;;;;;;;1999.90;999.90;;;14.00;99.90;;;;;;6125236;23;20889;-46
2021/06/17 04:17:24;;;;;;;1999.90;999.90;;;13.90;99.90;;;;;;6125265;23;20853;-47
2021/06/17 04:19:53;;;;;;;1999.90;999.90;;;13.90;99.90;;;;;;6125495;23;20139;-51
2021/06/17 04:22:22;;;;;;;1999.90;999.90;;;14.00;99.90;;;;;;6125140;23;20666;-48
2021/06/17 04:25:04;;;;;;;1999.90;999.90;;;13.90;99.90;;;;;;6125664;23;20210;-47
2021/06/17 04:27:31;;;;;;;1999.90;999.90;;;14.00;99.90;;;;;;6098940;23;20147;-50
2021/06/17 04:29:58;;;;;;;1999.90;999.90;;;14.00;99.90;;;;;;6124889;23;20476;-54
2021/06/17 04:32:26;;;;;;;1999.90;999.90;;;14.10;99.90;;;;;;6125210;23;20595;-46
2021/06/17 04:34:56;;;;;;;1999.90;999.90;;;14.10;99.90;;;;;;6124914;23;20147;-52
2021/06/17 04:37:27;;;;;;;1999.90;999.90;;;14.10;99.90;;;;;;6124902;23;20288;-47
2021/06/17 04:39:59;;;;;;;1999.90;999.90;;;14.10;99.90;;;;;;6125275;23;20151;-47
2021/06/17 04:42:27;;;;;;;1999.90;999.90;;;14.10;99.90;;;;;;6124746;23;20609;-46
2021/06/17 04:44:55;;;;;;;1999.90;999.90;;;14.10;99.90;;;;;;6125084;23;20226;-49
2021/06/17 04:47:22;;;;;;;1999.90;999.90;;;14.10;99.90;;;;;;6124883;23;20155;-53
2021/06/17 04:49:50;;;;;;;1999.90;999.90;;;14.10;99.90;;;;;;6125003;23;20151;-50
2021/06/17 04:52:39;;;;;;;1999.90;999.90;;;14.10;99.90;;;;;;6124759;23;20159;-50
2021/06/17 04:55:07;;;;;;;1999.90;999.90;;;14.10;99.90;;;;;;6124853;23;20217;-50
2021/06/17 04:57:33;;;;;;;1999.90;999.90;;;14.10;99.90;;;;;;6124871;23;20151;-53
2021/06/17 05:00:00;;;;;;;1999.90;999.90;;;14.10;99.90;;;;;;6124769;23;20636;-48
2021/06/17 05:02:27;;;;;;;1999.90;999.90;;;14.20;99.90;;;;;;6124736;23;20147;-50
2021/06/17 05:04:54;;;;;;;1999.90;999.90;;;14.30;99.90;;;;;;6124849;23;20191;-46
2021/06/17 05:07:23;;;;;;;1999.90;999.90;;;14.20;99.90;;;;;;6124753;23;20238;-47
2021/06/17 05:12:35;;;;;;;1999.90;999.90;;;14.30;99.90;;;;;;6124539;23;20163;-47
2021/06/17 05:15:02;;;;;;;1999.90;999.90;;;14.40;99.90;;;;;;6124867;23;20456;-50
2021/06/17 05:17:30;;;;;;;1999.90;999.90;;;14.30;99.90;;;;;;6124341;23;20201;-48
2021/06/17 05:19:58;;;;;;;1999.90;999.90;;;14.30;99.90;;;;;;6124387;23;20587;-45
2021/06/17 05:22:25;;;;;;;1999.90;999.90;;;14.30;99.90;;;;;;6124874;23;20151;-45
2021/06/17 05:24:53;;;;;;;1999.90;999.90;;;14.30;99.90;;;;;;6124376;23;20187;-54
2021/06/17 05:27:20;;;;;;;1999.90;999.90;;;14.20;99.90;;;;;;6124297;23;20201;-49
2021/06/17 05:29:46;;;;;;;1999.90;999.90;;;14.30;99.90;;;;;;6124704;23;20610;-54
2021/06/17 05:32:15;;;;;;;1999.90;999.90;;;14.30;99.90;;;;;;6124521;23;20526;-48
2021/06/17 05:34:42;;;;;;;1999.90;999.90;;;14.40;99.90;;;;;;6124355;23;20154;-47
2021/06/17 05:37:09;;;;;;;1999.90;999.90;;;14.40;99.90;;;;;;6124665;23;20178;-55
2021/06/17 05:39:36;;;;;;;1999.90;999.90;;;14.40;99.90;;;;;;6123888;23;20218;-45
2021/06/17 05:42:03;;;;;;;1999.90;999.90;;;14.30;99.90;;;;;;6124632;23;20570;-53
2021/06/17 05:44:30;;;;;;;1999.90;999.90;;;14.30;99.90;;;;;;6124174;23;20513;-47
2021/06/17 05:46:57;;;;;;;1999.90;999.90;;;14.30;99.90;;;;;;6124187;23;20156;-50
2021/06/17 05:49:24;;;;;;;1999.90;999.90;;;14.30;99.90;;;;;;6124079;23;20161;-49
2021/06/17 05:51:52;;;;;;;1999.90;999.90;;;14.20;99.90;;;;;;6124002;23;20586;-56
2021/06/17 05:54:19;;;;;;;1999.90;999.90;;;14.10;99.90;;;;;;6123980;23;20191;-51
2021/06/17 05:56:46;;;;;;;1999.90;999.90;;;14.10;99.90;;;;;;6124132;23;20495;-47
2021/06/17 05:59:13;;;;;;;1999.90;999.90;;;14.10;99.90;;;;;;6124373;23;20151;-45
2021/06/17 06:01:40;;;;;;;1999.90;999.90;;;14.10;99.90;;;;;;6124017;23;20151;-54
2021/06/17 06:04:06;;;;;;;1999.90;999.90;;;14.10;99.90;;;;;;6124094;23;20657;-49
2021/06/17 06:06:33;;;;;;;1999.90;999.90;;;14.10;99.90;;;;;;6124402;23;20163;-47
2021/06/17 06:09:00;;;;;;;1999.90;999.90;;;14.10;99.90;;;;;;6123846;23;20165;-47
2021/06/17 06:11:27;;;;;;;1999.90;999.90;;;14.20;99.90;;;;;;6124367;23;20151;-47
2021/06/17 06:13:54;;;;;;;1999.90;999.90;;;14.20;99.90;;;;;;6124117;23;20151;-55
2021/06/17 06:16:20;;;;;;;1999.90;999.90;;;14.30;99.90;;;;;;6123432;23;20177;-46
2021/06/17 06:18:47;;;;;;;1999.90;999.90;;;14.20;99.90;;;;;;6122102;23;20551;-50
2021/06/17 06:21:14;;;;;;;1999.90;999.90;;;14.20;99.90;;;;;;6123431;23;20231;-42
2021/06/17 06:23:41;;;;;;;1999.90;999.90;;;14.20;99.90;;;;;;6123347;23;20415;-45
2021/06/17 06:26:08;;;;;;;1999.90;999.90;;;14.20;99.90;;;;;;6123621;23;20193;-42
2021/06/17 06:28:35;;;;;;;1999.90;999.90;;;14.30;99.90;;;;;;6123517;23;20144;-51
2021/06/17 06:31:01;;;;;;;1999.90;999.90;;;14.30;99.90;;;;;;6123649;23;20186;-46
2021/06/17 06:33:29;;;;;;;1999.90;999.90;;;14.40;99.90;;;;;;6123953;23;20155;-45
2021/06/17 06:35:56;;;;;;;1999.90;999.90;;;14.40;99.90;;;;;;6123734;23;20179;-41
2021/06/17 06:38:23;;;;;;;1999.90;999.90;;;14.40;99.90;;;;;;6123928;23;20155;-40
2021/06/17 06:40:52;;;;;;;1999.90;999.90;;;14.40;99.90;;;;;;6124432;23;20145;-43
2021/06/17 06:43:19;;;;;;;1999.90;999.90;;;14.40;99.90;;;;;;6123106;23;20155;-41
2021/06/17 06:45:46;;;;;;;1999.90;999.90;;;14.40;99.90;;;;;;6123664;23;20246;-45
2021/06/17 06:48:13;;;;;;;1999.90;999.90;;;14.50;99.90;;;;;;6124109;23;20158;-52
2021/06/17 06:50:40;;;;;;;1999.90;999.90;;;14.50;99.90;;;;;;6123265;23;20182;-42
2021/06/17 06:53:07;;;;;;;1999.90;999.90;;;14.90;99.90;;;;;;6123398;23;20569;-46
2021/06/17 06:55:33;;;;;;;1999.90;999.90;;;14.90;99.90;;;;;;6123160;23;20186;-47
2021/06/17 06:58:02;;;;;;;1999.90;999.90;;;14.90;99.90;;;;;;6122976;23;20178;-59
2021/06/17 07:00:29;;;;;;;1999.90;999.90;;;15.00;99.90;;;;;;6123218;23;20153;-59
2021/06/17 07:02:56;;;;;;;1999.90;999.90;;;15.10;99.90;;;;;;6122639;23;20163;-46
2021/06/17 07:05:23;;;;;;;1999.90;999.90;;;15.00;99.90;;;;;;6121902;23;20198;-48
2021/06/17 07:07:50;;;;;;;1999.90;999.90;;;15.10;99.90;;;;;;6121997;23;20486;-47
2021/06/17 07:10:16;;;;;;;1999.90;999.90;;;15.40;99.90;;;;;;6122412;23;20151;-54
2021/06/17 07:12:43;;;;;;;1999.90;999.90;;;15.70;99.90;;;;;;6122243;23;20562;-42
2021/06/17 07:15:11;;;;;;;1999.90;999.90;;;16.00;99.90;;;;;;6122568;23;20588;-47
2021/06/17 07:17:38;;;;;;;1999.90;999.90;;;15.90;99.90;;;;;;6121915;23;20247;-46
2021/06/17 07:20:06;;;;;;;1999.90;999.90;;;15.80;99.90;;;;;;6122487;23;20451;-42
2021/06/17 07:22:32;;;;;;;1999.90;999.90;;;15.70;99.90;;;;;;6122810;23;20152;-42
2021/06/17 07:25:01;;;;;;;1999.90;999.90;;;15.60;99.90;;;;;;6121668;23;20266;-43
2021/06/17 07:27:28;;;;;;;1999.90;999.90;;;15.50;99.90;;;;;;6122467;23;20151;-41
2021/06/17 07:29:54;;;;;;;1999.90;999.90;;;15.40;99.90;;;;;;6124243;23;20155;-46
2021/06/17 07:32:21;;;;;;;1999.90;999.90;;;15.40;99.90;;;;;;6124553;23;20174;-43
2021/06/17 07:34:48;;;;;;;1999.90;999.90;;;15.30;99.90;;;;;;6124232;23;20147;-52
2021/06/17 07:37:16;;;;;;;1999.90;999.90;;;15.30;99.90;;;;;;6124380;23;20151;-45
2021/06/17 07:39:43;;;;;;;1999.90;999.90;;;15.30;99.90;;;;;;6123951;23;20481;-59
2021/06/17 07:42:11;;;;;;;1999.90;999.90;;;15.30;99.90;;;;;;6098422;23;20507;-47
2021/06/17 07:44:37;;;;;;;1999.90;999.90;;;15.40;99.90;;;;;;6123271;23;20202;-45
2021/06/17 07:47:05;;;;;;;1999.90;999.90;;;15.50;99.90;;;;;;6124564;23;20156;-51
2021/06/17 07:49:32;;;;;;;1999.90;999.90;;;15.70;99.90;;;;;;6124441;23;20551;-57
2021/06/17 07:51:59;;;;;;;1999.90;999.90;;;15.70;99.90;;;;;;6124655;23;20152;-54
2021/06/17 07:54:26;;;;;;;1999.90;999.90;;;15.70;99.90;;;;;;6123975;23;20217;-56
2021/06/17 07:56:55;;;;;;;1999.90;999.90;;;15.70;99.90;;;;;;6124200;23;20262;-43
2021/06/17 07:59:22;;;;;;;1999.90;999.90;;;15.70;99.90;;;;;;6124598;23;20194;-50
2021/06/17 08:01:51;;;;;;;1999.90;999.90;;;15.80;99.90;;;;;;6124336;23;20184;-45
2021/06/17 08:04:18;;;;;;;1999.90;999.90;;;15.90;99.90;;;;;;6123994;23;20156;-54
2021/06/17 08:06:45;;;;;;;1999.90;999.90;;;15.90;99.90;;;;;;6124470;23;20183;-49
2021/06/17 08:09:18;;;;;;;1999.90;999.90;;;16.10;99.90;;;;;;6124197;23;20147;-50
2021/06/17 08:11:47;;;;;;;1999.90;999.90;;;16.20;99.90;;;;;;6124225;23;20147;-48
2021/06/17 08:14:21;;;;;;;1999.90;999.90;;;16.40;99.90;;;;;;6123328;23;20557;-51
2021/06/17 08:16:48;;;;;;;1999.90;999.90;;;16.40;99.90;;;;;;6123647;23;20152;-45
2021/06/17 08:19:15;;;;;;;1999.90;999.90;;;16.50;99.90;;;;;;6124183;23;20195;-52
2021/06/17 08:21:42;;;;;;;1999.90;999.90;;;16.50;99.90;;;;;;6123899;23;20166;-42
2021/06/17 08:24:10;;;;;;;1999.90;999.90;;;16.60;99.90;;;;;;6123862;23;20143;-46
2021/06/17 08:26:37;;;;;;;1999.90;999.90;;;16.70;99.90;;;;;;6124336;23;20606;-55
2021/06/17 08:29:05;;;;;;;1999.90;999.90;;;16.80;99.90;;;;;;6125058;23;20147;-50
2021/06/17 08:31:31;;;;;;;1999.90;999.90;;;16.70;99.90;;;;;;6125638;23;20147;-58
2021/06/17 08:33:58;;;;;;;1999.90;999.90;;;16.90;99.90;;;;;;6125248;23;20582;-52
2021/06/17 08:36:25;;;;;;;1999.90;999.90;;;17.00;99.90;;;;;;6126859;23;20590;-43
2021/06/17 08:38:52;;;;;;;1999.90;999.90;;;17.10;99.90;;;;;;6123825;23;20151;-49
2021/06/17 08:41:19;;;;;;;1999.90;999.90;;;17.10;99.90;;;;;;6123669;23;20202;-51
2021/06/17 08:43:45;;;;;;;1999.90;999.90;;;17.20;99.90;;;;;;6123625;23;20542;-44
2021/06/17 08:46:12;;;;;;;1999.90;999.90;;;17.30;99.90;;;;;;6123508;23;20618;-40
2021/06/17 08:48:40;;;;;;;1999.90;999.90;;;17.40;99.90;;;;;;6123627;23;20170;-44
2021/06/17 08:51:08;;;;;;;1999.90;999.90;;;17.60;99.90;;;;;;6123774;23;20239;-44
2021/06/17 08:53:36;;;;;;;1999.90;999.90;;;17.90;99.90;;;;;;6123288;23;20191;-52
2021/06/17 08:56:03;;;;;;;1999.90;999.90;;;18.00;99.90;;;;;;6123800;23;20622;-52
2021/06/17 08:58:30;;;;;;;1999.90;999.90;;;18.00;99.90;;;;;;6123425;23;20158;-44
2021/06/17 09:00:56;;;;;;;1999.90;999.90;;;18.00;99.90;;;;;;6123330;23;20294;-56
2021/06/17 09:03:23;;;;;;;1999.90;999.90;;;17.90;99.90;;;;;;6124347;23;20554;-60
2021/06/17 09:05:53;;;;;;;1999.90;999.90;;;18.00;99.90;;;;;;6123189;23;20225;-43
2021/06/17 09:08:30;;;;;;;1999.90;999.90;;;18.00;99.90;;;;;;6123090;23;20238;-46
2021/06/17 09:10:58;;;;;;;1999.90;999.90;;;18.10;99.90;;;;;;6123077;23;20139;-43
2021/06/17 09:13:33;;;;;;;1999.90;999.90;;;18.30;99.90;;;;;;6122273;23;20167;-45
2021/06/17 09:16:01;;;;;;;1999.90;999.90;;;18.60;99.90;;;;;;6122672;23;20135;-48
2021/06/17 09:18:34;;;;;;;1999.90;999.90;;;18.90;99.90;;;;;;6122946;23;20271;-49
2021/06/17 09:21:04;;;;;;;1999.90;999.90;;;19.20;99.90;;;;;;6121868;23;20567;-47
2021/06/17 09:23:38;;;;;;;1999.90;999.90;;;19.30;99.90;;;;;;6123241;23;20147;-57
2021/06/17 09:26:12;;;;;;;1999.90;999.90;;;19.20;99.90;;;;;;6118880;23;20288;-46
2021/06/17 09:28:53;;;;;;;1999.90;999.90;;;19.00;99.90;;;;;;6123870;23;20146;-48
2021/06/17 09:31:28;;;;;;;1999.90;999.90;;;19.00;99.90;;;;;;6125663;23;20144;-45
2021/06/17 09:33:57;;;;;;;1999.90;999.90;;;18.80;99.90;;;;;;6125243;23;20153;-48
2021/06/17 09:36:26;;;;;;;1999.90;999.90;;;18.90;99.90;;;;;;6125727;23;20548;-48
2021/06/17 09:39:03;;;;;;;1999.90;999.90;;;19.10;99.90;;;;;;6125725;23;20151;-48
2021/06/17 09:41:31;;;;;;;1999.90;999.90;;;19.20;99.90;;;;;;6120487;23;20150;-46
2021/06/17 09:43:58;;;;;;;1999.90;999.90;;;19.30;99.90;;;;;;6123312;23;20143;-46
2021/06/17 09:46:24;;;;;;;1999.90;999.90;;;19.40;99.90;;;;;;6122237;23;20269;-56
2021/06/17 09:48:51;;;;;;;1999.90;999.90;;;19.50;99.90;;;;;;6123096;23;20155;-45
2021/06/17 09:51:41;;;;;;;1999.90;999.90;;;19.60;99.90;;;;;;6122815;23;20229;-43
2021/06/17 09:54:17;;;;;;;1999.90;999.90;;;20.00;99.90;;;;;;6123007;23;20198;-44
2021/06/17 09:56:49;;;;;;;1999.90;999.90;;;20.20;99.90;;;;;;6122433;23;20170;-40
2021/06/17 09:59:31;;;;;;;1999.90;999.90;;;20.40;99.90;;;;;;6123185;23;20637;-43
2021/06/17 10:01:58;;;;;;;1999.90;999.90;;;20.40;99.80;;;;;;6122984;23;20143;-44
2021/06/17 10:04:25;;;;;;;1999.90;999.90;;;20.40;99.80;;;;;;6122798;23;20171;-45
2021/06/17 10:06:53;;;;;;;1999.90;999.90;;;20.40;99.90;;;;;;6123963;23;20155;-46
2021/06/17 10:09:20;;;;;;;1999.90;999.90;;;20.40;99.40;;;;;;6123253;23;20151;-46
2021/06/17 10:11:47;;;;;;;1999.90;999.90;;;20.30;99.40;;;;;;6123193;23;20159;-45
2021/06/17 10:14:15;;;;;;;1999.90;999.90;;;20.40;99.90;;;;;;6123561;23;20647;-44
2021/06/17 10:16:42;;;;;;;1999.90;999.90;;;20.40;99.30;;;;;;6122876;23;20163;-43
2021/06/17 10:19:10;;;;;;;1999.90;999.90;;;20.40;98.80;;;;;;6123781;23;20152;-48
2021/06/17 10:21:37;;;;;;;1999.90;999.90;;;20.30;98.60;;;;;;6123966;23;20173;-43
2021/06/17 10:24:13;;;;;;;1999.90;999.90;;;20.30;99.10;;;;;;6123086;23;20147;-43
2021/06/17 10:26:47;;;;;;;1999.90;999.90;;;20.30;99.70;;;;;;6097405;23;20170;-41
2021/06/17 10:29:29;;;;;;;1999.90;999.90;;;20.50;98.60;;;;;;6120454;23;20467;-56
2021/06/17 10:31:57;;;;;;;1999.90;999.90;;;20.40;98.90;;;;;;6121970;23;20174;-48
2021/06/17 10:34:29;;;;;;;1999.90;999.90;;;20.40;98.80;;;;;;6122971;23;20185;-55
2021/06/17 10:37:15;;;;;;;1999.90;999.90;;;20.60;99.40;;;;;;6122567;23;20152;-54
2021/06/17 10:40:04;;;;;;;1999.90;999.90;;;20.90;97.60;;;;;;6120989;23;20720;-41
2021/06/17 10:42:41;;;;;;;1999.90;999.90;;;20.80;97.70;;;;;;6107140;23;20163;-60
2021/06/17 10:45:13;;;;;;;1999.90;999.90;;;20.60;98.40;;;;;;6096032;23;20193;-44
2021/06/17 10:47:47;;;;;;;1999.90;999.90;;;20.40;99.50;;;;;;6122618;23;20159;-54
2021/06/17 10:50:21;;;;;;;1999.90;999.90;;;20.30;99.20;;;;;;6122942;23;20235;-45
2021/06/17 10:52:52;;;;;;;1999.90;999.90;;;20.00;99.90;;;;;;6121552;23;20190;-46
2021/06/17 10:55:21;;;;;;;1999.90;999.90;;;20.10;99.90;;;;;;6123255;23;20154;-51
2021/06/17 10:57:51;;;;;;;1999.90;999.90;;;20.10;99.60;;;;;;6122461;23;20234;-45
2021/06/17 11:00:30;;;;;;;1999.90;999.90;;;20.10;99.80;;;;;;6120818;23;20165;-41
2021/06/17 11:03:06;;;;;;;1999.90;999.90;;;20.20;99.00;;;;;;6122567;23;20139;-43
2021/06/17 11:05:36;;;;;;;1999.90;999.90;;;20.20;98.90;;;;;;6122630;23;20183;-44
2021/06/17 11:08:21;;;;;;;1999.90;999.90;;;20.40;99.90;;;;;;6122623;23;20158;-43
2021/06/17 11:10:51;;;;;;;1999.90;999.90;;;20.60;99.00;;;;;;6122513;23;20155;-52
2021/06/17 11:13:33;;;;;;;1999.90;999.90;;;20.80;98.70;;;;;;6122653;23;20154;-58
2021/06/17 11:16:02;;;;;;;1999.90;999.90;;;20.80;98.00;;;;;;6122671;23;20358;-49
2021/06/17 11:19:13;;;;;;;1999.90;999.90;;;20.70;97.70;;;;;;6122774;23;20195;-42
2021/06/17 11:21:36;;;;;;;1999.90;999.90;;;20.50;99.20;;;;;;6122278;23;20180;-44
2021/06/17 11:24:19;;;;;;;1999.90;999.90;;;20.40;99.00;;;;;;6122636;23;20206;-45
2021/06/17 11:26:53;;;;;;;1999.90;999.90;;;20.60;99.90;;;;;;6123051;23;20484;-49
2021/06/17 11:29:22;;;;;;;1999.90;999.90;;;20.90;98.60;;;;;;6122470;23;20154;-44
2021/06/17 11:31:54;;;;;;;1999.90;999.90;;;21.20;96.90;;;;;;6122991;23;20151;-46
2021/06/17 11:34:38;;;;;;;1999.90;999.90;;;21.20;97.40;;;;;;6122743;23;20179;-48
2021/06/17 11:37:16;;;;;;;1999.90;999.90;;;21.50;96.80;;;;;;6122862;23;20174;-48
2021/06/17 11:39:47;;;;;;;1999.90;999.90;;;21.50;96.20;;;;;;6123091;23;20214;-47
2021/06/17 11:42:19;;;;;;;1999.90;999.90;;;21.50;96.60;;;;;;6096687;23;20491;-62
2021/06/17 11:45:01;;;;;;;1999.90;999.90;;;21.50;96.80;;;;;;6122247;23;20179;-45
2021/06/17 11:47:28;;;;;;;1999.90;999.90;;;21.60;96.30;;;;;;6123278;23;20810;-48
2021/06/17 11:50:04;;;;;;;1999.90;999.90;;;21.60;96.10;;;;;;6122736;23;20178;-60
2021/06/17 11:52:38;;;;;;;1999.90;999.90;;;21.90;95.60;;;;;;6121175;23;20178;-50
2021/06/17 11:55:07;;;;;;;1999.90;999.90;;;22.00;95.30;;;;;;6121704;23;20150;-51
2021/06/17 11:57:39;;;;;;;1999.90;999.90;;;21.90;94.80;;;;;;6121752;23;20165;-45
2021/06/17 12:00:10;;;;;;;1999.90;999.90;;;21.80;95.20;;;;;;6122007;23;20162;-43
2021/06/17 12:02:39;;;;;;;1999.90;999.90;;;21.60;95.10;;;;;;6121597;23;20159;-49
2021/06/17 12:05:10;;;;;;;1999.90;999.90;;;21.40;95.50;;;;;;6121602;23;20489;-52
2021/06/17 12:07:46;;;;;;;1999.90;999.90;;;21.20;96.40;;;;;;6122513;23;20264;-44
2021/06/17 12:10:18;;;;;;;1999.90;999.90;;;21.00;96.80;;;;;;6122778;23;20144;-41
2021/06/17 12:12:50;;;;;;;1999.90;999.90;;;21.00;97.70;;;;;;6122413;23;20152;-40
2021/06/17 12:15:41;;;;;;;1999.90;999.90;;;20.50;99.70;;;;;;6122963;23;20155;-42